createdAt,value
2022-09-25T00:02:08.486Z,9.30
2022-09-25T00:04:37.232Z,9.30
2022-09-25T00:07:05.968Z,9.40
2022-09-25T00:09:34.659Z,9.20
2022-09-25T00:12:03.886Z,9.20
2022-09-25T00:14:32.767Z,9.20
2022-09-25T00:17:01.612Z,9.20
2022-09-25T00:19:49.541Z,9.30
2022-09-25T00:22:18.391Z,9.00
2022-09-25T00:24:47.230Z,9.00
2022-09-25T00:27:16.929Z,9.00
2022-09-25T00:29:47.412Z,9.20
2022-09-25T00:32:16.641Z,9.40
2022-09-25T00:34:47.429Z,9.40
2022-09-25T00:37:16.345Z,9.30
2022-09-25T00:39:44.947Z,9.20
2022-09-25T00:42:14.793Z,9.20
2022-09-25T00:45:01.296Z,9.00
2022-09-25T00:47:40.598Z,8.80
2022-09-25T00:50:18.350Z,8.90
2022-09-25T00:52:48.049Z,8.70
2022-09-25T00:55:17.338Z,8.60
2022-09-25T00:57:49.861Z,8.60
2022-09-25T01:00:18.990Z,8.80
2022-09-25T01:02:53.389Z,8.90
2022-09-25T01:05:28.125Z,9.00
2022-09-25T01:07:59.164Z,8.90
2022-09-25T01:10:28.891Z,8.70
2022-09-25T01:12:59.441Z,8.60
2022-09-25T01:15:35.922Z,8.50
2022-09-25T01:18:16.455Z,8.60
2022-09-25T01:21:08.961Z,8.80
2022-09-25T01:24:05.941Z,8.80
2022-09-25T01:26:57.990Z,8.60
2022-09-25T01:29:32.427Z,8.40
2022-09-25T01:32:06.299Z,8.50
2022-09-25T01:34:42.036Z,8.50
2022-09-25T01:37:21.071Z,8.40
2022-09-25T01:39:58.088Z,8.20
2022-09-25T01:42:30.844Z,8.20
2022-09-25T01:45:04.475Z,8.10
2022-09-25T01:47:37.852Z,8.00
2022-09-25T01:50:11.533Z,8.00
2022-09-25T01:52:44.430Z,7.80
2022-09-25T01:55:19.126Z,7.70
2022-09-25T01:57:54.494Z,7.70
2022-09-25T02:00:27.330Z,7.60
2022-09-25T02:02:58.588Z,7.60
2022-09-25T02:05:31.151Z,7.50
2022-09-25T02:08:04.954Z,7.50
2022-09-25T02:10:38.357Z,7.50
2022-09-25T02:13:10.568Z,7.40
2022-09-25T02:15:45.171Z,7.40
2022-09-25T02:18:34.559Z,7.40
2022-09-25T02:21:13.566Z,7.30
2022-09-25T02:23:53.134Z,7.30
2022-09-25T02:26:28.115Z,7.20
2022-09-25T02:28:57.906Z,7.20
2022-09-25T02:31:35.860Z,7.20
2022-09-25T02:34:07.207Z,7.40
2022-09-25T02:36:38.281Z,7.50
2022-09-25T02:39:09.936Z,7.50
2022-09-25T02:41:52.193Z,7.30
2022-09-25T02:44:32.682Z,7.30
2022-09-25T02:47:15.898Z,7.30
2022-09-25T02:49:52.433Z,7.30
2022-09-25T02:52:28.948Z,7.30
2022-09-25T02:55:05.327Z,7.20
2022-09-25T02:57:43.340Z,7.20
2022-09-25T03:00:13.480Z,7.10
2022-09-25T03:02:49.681Z,7.10
2022-09-25T03:05:21.840Z,7.10
2022-09-25T03:08:08.128Z,7.20
2022-09-25T03:10:39.269Z,7.40
2022-09-25T03:13:19.344Z,7.90
2022-09-25T03:15:52.838Z,7.60
2022-09-25T03:18:23.584Z,7.60
2022-09-25T03:20:52.607Z,7.60
2022-09-25T03:23:21.375Z,7.40
2022-09-25T03:25:50.659Z,7.30
2022-09-25T03:28:20.121Z,7.20
2022-09-25T03:30:58.506Z,7.10
2022-09-25T03:33:30.104Z,7.20
2022-09-25T03:36:03.757Z,7.20
2022-09-25T03:38:32.630Z,7.00
2022-09-25T03:41:01.539Z,6.90
2022-09-25T03:43:36.734Z,6.90
2022-09-25T03:46:06.417Z,6.90
2022-09-25T03:48:37.323Z,6.80
2022-09-25T03:51:07.475Z,7.00
2022-09-25T03:53:36.643Z,7.20
2022-09-25T03:56:07.607Z,7.30
2022-09-25T03:58:37.139Z,7.30
2022-09-25T04:01:06.075Z,7.30
2022-09-25T04:03:38.018Z,7.30
2022-09-25T04:06:08.646Z,7.30
2022-09-25T04:08:38.592Z,7.30
2022-09-25T04:11:07.801Z,7.30
2022-09-25T04:13:38.001Z,7.30
2022-09-25T04:16:08.347Z,7.30
2022-09-25T04:18:42.806Z,7.40
2022-09-25T04:21:13.209Z,7.50
2022-09-25T04:23:42.542Z,7.60
2022-09-25T04:26:11.570Z,7.80
2022-09-25T04:28:40.371Z,7.90
2022-09-25T04:31:09.155Z,7.90
2022-09-25T04:33:48.152Z,7.90
2022-09-25T04:36:19.086Z,7.80
2022-09-25T04:38:48.500Z,7.70
2022-09-25T04:41:19.888Z,7.70
2022-09-25T04:43:49.214Z,7.70
2022-09-25T04:46:22.277Z,7.90
2022-09-25T04:48:52.987Z,8.00
2022-09-25T04:51:22.051Z,8.10
2022-09-25T04:53:50.591Z,8.30
2022-09-25T04:56:19.184Z,8.20
2022-09-25T04:58:49.693Z,8.10
2022-09-25T05:01:20.206Z,8.10
2022-09-25T05:03:50.501Z,8.20
2022-09-25T05:06:21.255Z,8.50
2022-09-25T05:08:50.722Z,8.50
2022-09-25T05:11:19.601Z,8.60
2022-09-25T05:13:51.536Z,8.70
2022-09-25T05:16:20.823Z,8.70
2022-09-25T05:18:50.001Z,8.70
2022-09-25T05:21:20.209Z,8.60
2022-09-25T05:23:48.758Z,8.60
2022-09-25T05:26:17.752Z,8.60
2022-09-25T05:28:50.567Z,8.70
2022-09-25T05:31:19.225Z,8.70
2022-09-25T05:33:48.019Z,8.90
2022-09-25T05:36:18.259Z,9.00
2022-09-25T05:38:49.002Z,9.10
2022-09-25T05:41:18.834Z,9.20
2022-09-25T05:43:48.774Z,9.20
2022-09-25T05:46:17.726Z,9.30
2022-09-25T05:48:46.371Z,9.40
2022-09-25T05:51:15.282Z,9.20
2022-09-25T05:53:44.335Z,9.30
2022-09-25T05:56:16.792Z,9.40
2022-09-25T05:58:45.562Z,9.30
2022-09-25T06:01:14.698Z,9.30
2022-09-25T06:03:43.608Z,9.40
2022-09-25T06:06:12.668Z,9.40
2022-09-25T06:08:41.400Z,9.50
2022-09-25T06:11:11.402Z,9.50
2022-09-25T06:13:48.543Z,9.90
2022-09-25T06:16:20.700Z,10.20
2022-09-25T06:18:49.301Z,10.50
2022-09-25T06:21:17.874Z,10.40
2022-09-25T06:23:46.872Z,10.60
2022-09-25T06:26:15.522Z,10.80
2022-09-25T06:28:45.380Z,11.10
2022-09-25T06:31:13.933Z,11.20
2022-09-25T06:33:43.814Z,11.50
2022-09-25T06:36:12.332Z,11.50
2022-09-25T06:38:40.884Z,11.50
2022-09-25T06:41:09.455Z,11.80
2022-09-25T06:43:38.060Z,12.00
2022-09-25T06:46:08.101Z,12.00
2022-09-25T06:48:36.696Z,12.10
2022-09-25T06:51:05.705Z,12.30
2022-09-25T06:53:34.296Z,12.30
2022-09-25T06:56:03.065Z,12.30
2022-09-25T06:58:31.716Z,12.50
2022-09-25T07:01:00.359Z,12.60
2022-09-25T07:03:49.129Z,12.60
2022-09-25T07:06:20.130Z,12.60
2022-09-25T07:08:49.719Z,12.70
2022-09-25T07:11:20.456Z,12.60
2022-09-25T07:13:54.972Z,12.60
2022-09-25T07:16:26.245Z,12.60
2022-09-25T07:18:57.205Z,12.70
2022-09-25T07:21:27.822Z,12.60
2022-09-25T07:23:58.244Z,12.70
2022-09-25T07:26:28.439Z,12.90
2022-09-25T07:28:59.456Z,13.00
2022-09-25T07:31:30.729Z,13.10
2022-09-25T07:34:05.907Z,13.30
2022-09-25T07:36:34.599Z,13.30
2022-09-25T07:39:03.303Z,13.40
2022-09-25T07:41:32.034Z,13.40
2022-09-25T07:46:49.913Z,13.80
2022-09-25T07:49:20.134Z,13.80
2022-09-25T07:51:48.752Z,13.70
2022-09-25T07:54:17.554Z,13.60
2022-09-25T07:56:46.288Z,13.60
2022-09-25T07:59:14.882Z,13.60
2022-09-25T08:01:45.609Z,13.70
2022-09-25T08:04:17.327Z,13.90
2022-09-25T08:06:47.697Z,14.00
2022-09-25T08:09:16.306Z,14.30
2022-09-25T08:11:45.203Z,14.50
2022-09-25T08:14:15.911Z,14.60
2022-09-25T08:16:44.541Z,14.70
2022-09-25T08:19:14.057Z,14.80
2022-09-25T08:21:42.798Z,14.90
2022-09-25T08:24:13.262Z,15.10
2022-09-25T08:26:42.136Z,15.20
2022-09-25T08:29:11.573Z,15.50
2022-09-25T08:31:41.105Z,15.70
2022-09-25T08:34:38.864Z,15.70
2022-09-25T08:36:59.241Z,16.00
2022-09-25T08:39:29.627Z,16.30
2022-09-25T08:41:58.617Z,16.20
2022-09-25T08:44:30.585Z,16.40
2022-09-25T08:47:20.307Z,16.50
2022-09-25T08:50:00.045Z,16.70
2022-09-25T08:52:29.038Z,16.90
2022-09-25T08:54:59.710Z,16.70
2022-09-25T08:57:35.134Z,16.80
2022-09-25T09:00:08.693Z,17.00
2022-09-25T09:02:43.854Z,17.20
2022-09-25T09:05:20.720Z,17.20
2022-09-25T09:07:54.944Z,17.30
2022-09-25T09:10:35.286Z,17.30
2022-09-25T09:13:15.652Z,17.40
2022-09-25T09:15:48.561Z,17.50
2022-09-25T09:18:23.098Z,17.30
2022-09-25T09:20:54.490Z,17.30
2022-09-25T09:23:24.729Z,17.50
2022-09-25T09:26:15.076Z,17.30
2022-09-25T09:29:06.179Z,17.20
2022-09-25T09:31:46.881Z,17.50
2022-09-25T09:35:05.870Z,17.60
2022-09-25T09:37:49.994Z,17.40
2022-09-25T09:40:27.351Z,17.70
2022-09-25T09:43:06.261Z,17.80
2022-09-25T09:45:44.610Z,18.10
2022-09-25T09:48:17.788Z,18.20
2022-09-25T09:50:52.781Z,18.30
2022-09-25T09:53:30.594Z,18.20
2022-09-25T09:56:08.991Z,18.30
2022-09-25T09:58:47.526Z,18.20
2022-09-25T10:04:11.948Z,18.10
2022-09-25T10:06:46.018Z,18.30
2022-09-25T10:09:17.162Z,18.20
2022-09-25T10:11:48.220Z,17.90
2022-09-25T10:14:22.649Z,18.20
2022-09-25T10:16:53.386Z,18.50
2022-09-25T10:19:24.718Z,18.50
2022-09-25T10:21:58.571Z,18.40
2022-09-25T10:25:01.902Z,18.80
2022-09-25T10:27:33.326Z,19.00
2022-09-25T10:30:15.143Z,18.80
2022-09-25T10:32:46.714Z,18.90
2022-09-25T10:35:17.742Z,18.80
2022-09-25T10:37:50.182Z,18.40
2022-09-25T10:40:29.056Z,18.40
2022-09-25T10:43:23.740Z,18.60
2022-09-25T10:46:10.850Z,19.00
2022-09-25T10:48:58.219Z,18.80
2022-09-25T10:51:27.624Z,18.60
2022-09-25T10:54:13.048Z,18.50
2022-09-25T10:56:42.101Z,18.30
2022-09-25T10:59:16.566Z,18.10
2022-09-25T11:01:48.701Z,18.40
2022-09-25T11:04:19.831Z,18.60
2022-09-25T11:06:52.457Z,18.10
2022-09-25T11:09:24.332Z,18.30
2022-09-25T11:11:55.756Z,18.50
2022-09-25T11:14:32.803Z,18.70
2022-09-25T11:17:06.879Z,18.60
2022-09-25T11:19:37.971Z,19.00
2022-09-25T11:22:19.430Z,18.90
2022-09-25T11:25:01.311Z,19.20
2022-09-25T11:27:37.827Z,19.40
2022-09-25T11:30:12.547Z,19.30
2022-09-25T11:32:52.817Z,19.10
2022-09-25T11:35:45.365Z,19.30
2022-09-25T11:38:45.803Z,19.40
2022-09-25T11:41:23.248Z,19.50
2022-09-25T11:44:23.816Z,19.30
2022-09-25T11:47:01.886Z,18.90
2022-09-25T11:49:34.815Z,19.10
2022-09-25T11:52:22.855Z,19.20
2022-09-25T11:55:14.890Z,19.20
2022-09-25T11:57:56.086Z,19.60
2022-09-25T12:00:32.658Z,19.40
2022-09-25T12:03:21.476Z,19.40
2022-09-25T12:06:08.878Z,19.50
2022-09-25T12:08:52.697Z,19.80
2022-09-25T12:11:28.706Z,19.70
2022-09-25T12:14:03.485Z,19.50
2022-09-25T12:16:41.391Z,19.70
2022-09-25T12:19:29.662Z,19.40
2022-09-25T12:22:05.851Z,19.60
2022-09-25T12:24:48.121Z,19.40
2022-09-25T12:27:24.320Z,19.40
2022-09-25T12:30:12.049Z,19.30
2022-09-25T12:33:00.120Z,19.30
2022-09-25T12:35:39.640Z,19.60
2022-09-25T12:38:20.259Z,19.60
2022-09-25T12:40:55.821Z,19.50
2022-09-25T12:43:28.969Z,19.70
2022-09-25T12:46:07.224Z,20.00
2022-09-25T12:48:39.199Z,20.30
2022-09-25T12:51:15.593Z,19.80
2022-09-25T12:53:50.767Z,19.80
2022-09-25T12:56:25.693Z,19.80
2022-09-25T12:59:06.058Z,20.00
2022-09-25T13:01:45.493Z,20.00
2022-09-25T13:04:35.288Z,19.80
2022-09-25T13:07:15.015Z,19.80
2022-09-25T13:09:47.034Z,20.20
2022-09-25T13:12:26.388Z,20.50
2022-09-25T13:15:00.440Z,20.60
2022-09-25T13:17:29.512Z,20.40
2022-09-25T13:20:44.928Z,20.40
2022-09-25T13:23:15.456Z,20.50
2022-09-25T13:25:48.604Z,20.60
2022-09-25T13:28:22.984Z,20.60
2022-09-25T13:31:09.095Z,20.70
2022-09-25T13:33:49.502Z,20.20
2022-09-25T13:36:36.217Z,20.00
2022-09-25T13:39:24.939Z,19.60
2022-09-25T13:41:59.292Z,19.70
2022-09-25T13:44:58.111Z,19.80
2022-09-25T13:47:54.937Z,19.70
2022-09-25T13:50:32.614Z,20.00
2022-09-25T13:53:22.957Z,19.90
2022-09-25T13:56:28.087Z,19.80
2022-09-25T13:59:26.579Z,19.60
2022-09-25T14:01:58.462Z,19.50
2022-09-25T14:04:37.650Z,19.50
2022-09-25T14:07:19.323Z,19.50
2022-09-25T14:09:50.496Z,19.50
2022-09-25T14:12:44.837Z,19.70
2022-09-25T14:15:36.312Z,19.90
2022-09-25T14:18:08.985Z,19.90
2022-09-25T14:20:41.235Z,19.80
2022-09-25T14:23:15.857Z,19.70
2022-09-25T14:25:47.011Z,19.70
2022-09-25T14:28:22.095Z,19.20
2022-09-25T14:31:09.846Z,19.40
2022-09-25T14:34:02.870Z,19.30
2022-09-25T14:36:39.448Z,19.20
2022-09-25T14:39:30.191Z,19.10
2022-09-25T14:42:37.203Z,19.10
2022-09-25T14:45:44.053Z,19.10
2022-09-25T14:48:18.565Z,18.80
2022-09-25T14:50:50.888Z,18.50
2022-09-25T14:53:27.725Z,18.30
2022-09-25T14:55:57.866Z,18.20
2022-09-25T14:58:31.147Z,18.10
2022-09-25T15:01:05.812Z,18.10
2022-09-25T15:03:42.457Z,18.10
2022-09-25T15:06:16.038Z,18.00
2022-09-25T15:08:45.199Z,17.90
2022-09-25T15:11:15.241Z,17.90
2022-09-25T15:13:45.081Z,18.00
2022-09-25T15:16:33.786Z,18.00
2022-09-25T15:19:11.650Z,18.00
2022-09-25T15:21:44.018Z,18.00
2022-09-25T15:24:17.648Z,17.90
2022-09-25T15:26:50.836Z,17.90
2022-09-25T15:29:23.049Z,17.70
2022-09-25T15:31:52.967Z,17.60
2022-09-25T15:34:25.908Z,17.40
2022-09-25T15:36:55.522Z,17.30
2022-09-25T15:39:26.081Z,17.30
2022-09-25T15:41:55.552Z,17.10
2022-09-25T15:44:26.194Z,17.00
2022-09-25T15:46:56.946Z,17.00
2022-09-25T15:49:31.964Z,17.00
2022-09-25T15:52:04.140Z,16.90
2022-09-25T15:54:38.835Z,17.00
2022-09-25T15:57:11.320Z,16.90
2022-09-25T16:00:04.489Z,17.00
2022-09-25T16:02:54.031Z,17.00
2022-09-25T16:05:30.055Z,17.00
2022-09-25T16:08:17.853Z,16.90
2022-09-25T16:10:50.297Z,16.90
2022-09-25T16:13:25.665Z,17.00
2022-09-25T16:15:56.243Z,16.90
2022-09-25T16:18:39.635Z,16.60
2022-09-25T16:21:17.940Z,16.40
2022-09-25T16:23:56.154Z,16.10
2022-09-25T16:26:30.029Z,15.90
2022-09-25T16:29:05.944Z,15.90
2022-09-25T16:31:36.493Z,15.90
2022-09-25T16:34:06.756Z,15.70
2022-09-25T16:36:43.971Z,15.30
2022-09-25T16:39:16.754Z,15.10
2022-09-25T16:41:49.408Z,14.80
2022-09-25T16:44:19.876Z,14.70
2022-09-25T16:47:07.650Z,14.70
2022-09-25T16:49:36.271Z,14.70
2022-09-25T16:52:08.949Z,14.80
2022-09-25T16:54:39.178Z,14.60
2022-09-25T16:57:08.567Z,14.30
2022-09-25T16:59:37.384Z,14.00
2022-09-25T17:02:21.329Z,13.80
2022-09-25T17:04:50.767Z,13.60
2022-09-25T17:07:21.283Z,13.60
2022-09-25T17:09:50.146Z,13.60
2022-09-25T17:12:22.703Z,13.70
2022-09-25T17:14:51.956Z,13.60
2022-09-25T17:17:22.171Z,13.60
2022-09-25T17:19:51.362Z,13.60
2022-09-25T17:22:24.679Z,13.70
2022-09-25T17:24:53.207Z,13.50
2022-09-25T17:27:21.767Z,13.50
2022-09-25T17:29:51.640Z,13.50
2022-09-25T17:32:20.291Z,13.40
2022-09-25T17:34:49.021Z,13.40
2022-09-25T17:37:17.541Z,13.30
2022-09-25T17:39:47.730Z,13.30
2022-09-25T17:42:17.209Z,13.20
2022-09-25T17:44:49.326Z,13.00
2022-09-25T17:47:17.948Z,12.90
2022-09-25T17:49:46.940Z,12.80
2022-09-25T17:52:19.834Z,12.70
2022-09-25T17:54:49.676Z,12.80
2022-09-25T17:57:18.199Z,12.60
2022-09-25T17:59:46.955Z,12.50
2022-09-25T18:02:17.606Z,12.40
2022-09-25T18:04:46.323Z,12.40
2022-09-25T18:07:15.310Z,12.40
2022-09-25T18:09:43.868Z,12.60
2022-09-25T18:12:13.911Z,12.50
2022-09-25T18:14:43.069Z,12.40
2022-09-25T18:17:11.727Z,12.20
2022-09-25T18:19:57.936Z,12.00
2022-09-25T18:22:28.158Z,11.90
2022-09-25T18:24:57.444Z,11.70
2022-09-25T18:27:29.768Z,11.70
2022-09-25T18:29:58.332Z,11.70
2022-09-25T18:32:26.963Z,11.70
2022-09-25T18:34:55.488Z,11.70
2022-09-25T18:37:24.110Z,11.80
2022-09-25T18:39:52.767Z,11.90
2022-09-25T18:42:21.484Z,12.10
2022-09-25T18:44:51.477Z,12.20
2022-09-25T18:47:20.167Z,12.30
2022-09-25T18:49:48.840Z,12.40
2022-09-25T18:52:17.557Z,12.40
2022-09-25T18:54:46.819Z,12.50
2022-09-25T18:57:16.387Z,12.60
2022-09-25T18:59:45.509Z,12.70
2022-09-25T19:02:21.442Z,12.70
2022-09-25T19:04:51.501Z,12.90
2022-09-25T19:07:20.935Z,12.90
2022-09-25T19:09:49.768Z,12.80
2022-09-25T19:12:18.925Z,12.90
2022-09-25T19:14:48.881Z,12.80
2022-09-25T19:17:20.755Z,12.90
2022-09-25T19:19:49.638Z,12.90
2022-09-25T19:22:21.197Z,12.80
2022-09-25T19:24:51.229Z,12.80
2022-09-25T19:27:20.431Z,12.70
2022-09-25T19:29:49.136Z,12.60
2022-09-25T19:32:20.143Z,12.60
2022-09-25T19:34:49.965Z,12.60
2022-09-25T19:37:19.619Z,12.70
2022-09-25T19:40:02.127Z,12.70
2022-09-25T19:42:33.781Z,12.70
2022-09-25T19:45:03.083Z,12.70
2022-09-25T19:47:33.711Z,12.60
2022-09-25T19:50:04.317Z,12.70
2022-09-25T19:52:33.002Z,12.60
2022-09-25T19:55:01.743Z,12.60
2022-09-25T19:57:30.841Z,12.70
2022-09-25T20:00:00.459Z,12.50
2022-09-25T20:02:29.305Z,12.70
2022-09-25T20:05:00.166Z,12.40
2022-09-25T20:07:29.305Z,12.40
2022-09-25T20:09:58.061Z,12.30
2022-09-25T20:12:26.875Z,12.30
2022-09-25T20:14:55.511Z,12.40
2022-09-25T20:17:24.286Z,12.10
2022-09-25T20:19:52.909Z,12.10
2022-09-25T20:22:23.150Z,12.00
2022-09-25T20:24:52.219Z,11.90
2022-09-25T20:27:23.492Z,11.90
2022-09-25T20:29:52.950Z,11.80
2022-09-25T20:32:22.138Z,11.70
2022-09-25T20:34:51.531Z,11.70
2022-09-25T20:37:20.269Z,11.60
2022-09-25T20:39:51.628Z,11.60
2022-09-25T20:42:21.384Z,11.60
2022-09-25T20:44:51.504Z,11.60
2022-09-25T20:47:20.334Z,11.60
2022-09-25T20:49:49.449Z,11.50
2022-09-25T20:52:18.171Z,11.50
2022-09-25T20:54:47.099Z,11.60
2022-09-25T20:57:18.648Z,11.60
2022-09-25T20:59:47.455Z,11.60
2022-09-25T21:02:16.435Z,11.50
2022-09-25T21:04:45.882Z,11.40
2022-09-25T21:07:17.194Z,11.30
2022-09-25T21:09:46.246Z,11.20
2022-09-25T21:12:16.844Z,11.10
2022-09-25T21:14:45.544Z,11.00
2022-09-25T21:17:14.211Z,11.00
2022-09-25T21:19:43.017Z,10.80
2022-09-25T21:22:12.066Z,11.00
2022-09-25T21:24:41.181Z,11.00
2022-09-25T21:27:09.819Z,11.10
2022-09-25T21:29:40.225Z,11.00
2022-09-25T21:32:09.021Z,11.00
2022-09-25T21:34:37.769Z,11.30
2022-09-25T21:37:06.433Z,11.40
2022-09-25T21:39:35.282Z,11.70
2022-09-25T21:42:04.892Z,11.60
2022-09-25T21:44:33.451Z,11.60
2022-09-25T21:47:03.614Z,11.50
2022-09-25T21:49:32.305Z,11.60
2022-09-25T21:52:00.952Z,11.70
2022-09-25T21:54:30.496Z,11.80
2022-09-25T21:56:59.179Z,12.00
2022-09-25T21:59:28.015Z,11.80
2022-09-25T22:01:58.576Z,11.80
2022-09-25T22:04:28.736Z,11.70
2022-09-25T22:06:58.832Z,11.70
2022-09-25T22:09:27.993Z,11.70
2022-09-25T22:11:56.720Z,11.80
2022-09-25T22:14:25.503Z,11.80
2022-09-25T22:16:54.348Z,11.90
2022-09-25T22:19:25.101Z,11.90
2022-09-25T22:21:58.079Z,11.90
2022-09-25T22:24:28.120Z,11.90
2022-09-25T22:26:57.748Z,12.00
2022-09-25T22:29:26.959Z,11.90
2022-09-25T22:31:55.536Z,11.90
2022-09-25T22:34:27.138Z,11.90
2022-09-25T22:37:00.281Z,12.00
2022-09-25T22:39:30.296Z,12.00
2022-09-25T22:41:59.516Z,11.90
2022-09-25T22:44:28.110Z,12.00
2022-09-25T22:46:57.422Z,12.20
2022-09-25T22:49:26.348Z,12.20
2022-09-25T22:51:56.695Z,12.00
2022-09-25T22:54:25.519Z,12.10
2022-09-25T22:56:54.402Z,11.90
2022-09-25T22:59:23.228Z,11.90
2022-09-25T23:01:54.295Z,11.90
2022-09-25T23:04:25.114Z,11.90
2022-09-25T23:06:54.771Z,11.80
2022-09-25T23:09:27.103Z,11.70
2022-09-25T23:11:56.952Z,11.50
2022-09-25T23:14:28.473Z,11.60
2022-09-25T23:16:57.901Z,11.50
2022-09-25T23:19:27.009Z,11.60
2022-09-25T23:21:56.274Z,11.50
2022-09-25T23:24:27.030Z,11.50
2022-09-25T23:26:55.598Z,11.40
2022-09-25T23:29:24.765Z,11.30
2022-09-25T23:31:53.886Z,11.30
2022-09-25T23:34:22.562Z,11.30
2022-09-25T23:36:51.170Z,11.20
2022-09-25T23:39:21.548Z,11.20
2022-09-25T23:41:51.905Z,11.20
2022-09-25T23:44:20.576Z,11.20
2022-09-25T23:46:49.347Z,11.20
2022-09-25T23:49:18.430Z,11.20
2022-09-25T23:51:48.217Z,11.30
2022-09-25T23:54:18.349Z,11.20
2022-09-25T23:56:47.010Z,11.30
2022-09-25T23:59:17.699Z,11.20
